Wardsboro, VT

4:50 AM EST on January 30, 2015 (GMT -0500)
Harriman And West | Change Station
CLOSE
Current Station
Airport
Location: North Adams,
Elevation: 653 ft
Nearby Weather Stations

Elev 653 ft 42.70 °N, 73.17 °W | Updated 16 minutes ago

Snow
Snow
29 °F
Feels Like 29 °F
N
0
Wind Variable Wind from North

Today
High -- | Low -- °F
--% Chance of Precip.
Yesterday
High -- | Low -- °F
Precip. -- in
7:08 AM 5:00 PM
Waxing Gibbous, 81% visible
Pressure 29.81 in
Visibility 1.5 miles
Clouds Overcast 2400 ft
Dew Point 26 °F
Humidity 89%
Rainfall 0.01 in
Snow Depth Not available.
UV 0 out of 12
Pollen .10 out of 12
Air Quality Not available.
Flu Activity Not available.
SPECI KAQW 300934Z AUTO 00000KT 1 1/2SM -SN BR OVC024 M02/M03 A2981 RMK AO2 P0000 T10171033

More Conditions Fewer Conditions

Pressure 29.81 in
Visibility 1.5 miles
Clouds Overcast 2400 ft
Dew Point 26 °F
Humidity 89%
Rainfall 0.01 in
Snow Depth Not available.
UV 0 out of 12
Pollen .10 out of 12
Air Quality Not available.
Flu Activity Not available.
SPECI KAQW 300934Z AUTO 00000KT 1 1/2SM -SN BR OVC024 M02/M03 A2981 RMK AO2 P0000 T10171033

More Conditions Fewer Conditions

10-Day Weather Forecast

Almanac

Astronomy

Jan. 30, 2015 Rise Set
Actual Time
Civil Twilight
Nautical Twilight
Astronomical Twilight
Moon
Length of Visible Light
Length of Day
Tomorrow will be .
, % of the Moon is Illuminated

Today's Extremes

State Highs State Lows

Community

WunderPhotos

Upload Photos

1,791,737 photos uploaded!

WunderBlogs® & News

Nearby

Air Quality

  Air Quality AQ Index Pollutant
Not available.

Snow Depth

Station Depth Elevation

Earthquake Activity

City Distance Mag. Time & Date
Minimum magnitude displayed is 2.5.

Coastal Water Temperatures

Place Temperature

Nearby Weather Stations